sensor_id;sensor_type;location;lat;lon;timestamp;P1;durP1;ratioP1;P2;durP2;ratioP2
61915;SDS011;47868;51.326;6.550;2023-09-18T00:02:25;7.50;;;5.68;;
61915;SDS011;47868;51.326;6.550;2023-09-18T00:04:53;9.68;;;6.15;;
61915;SDS011;47868;51.326;6.550;2023-09-18T00:07:19;10.07;;;5.80;;
61915;SDS011;47868;51.326;6.550;2023-09-18T00:09:45;9.15;;;5.93;;
61915;SDS011;47868;51.326;6.550;2023-09-18T00:12:11;9.13;;;6.25;;
61915;SDS011;47868;51.326;6.550;2023-09-18T00:14:37;10.75;;;6.28;;
61915;SDS011;47868;51.326;6.550;2023-09-18T00:17:03;9.10;;;5.85;;
61915;SDS011;47868;51.326;6.550;2023-09-18T00:19:29;8.43;;;5.85;;
61915;SDS011;47868;51.326;6.550;2023-09-18T00:21:57;11.60;;;6.38;;
61915;SDS011;47868;51.326;6.550;2023-09-18T00:24:25;9.55;;;6.22;;
61915;SDS011;47868;51.326;6.550;2023-09-18T00:26:51;10.50;;;6.22;;
61915;SDS011;47868;51.326;6.550;2023-09-18T00:29:18;9.60;;;6.10;;
61915;SDS011;47868;51.326;6.550;2023-09-18T00:31:44;8.73;;;6.30;;
61915;SDS011;47868;51.326;6.550;2023-09-18T00:34:10;8.10;;;6.20;;
61915;SDS011;47868;51.326;6.550;2023-09-18T00:36:36;8.20;;;6.00;;
61915;SDS011;47868;51.326;6.550;2023-09-18T00:39:03;8.98;;;6.72;;
61915;SDS011;47868;51.326;6.550;2023-09-18T00:41:29;7.35;;;6.30;;
61915;SDS011;47868;51.326;6.550;2023-09-18T00:43:55;9.70;;;6.00;;
61915;SDS011;47868;51.326;6.550;2023-09-18T00:46:21;6.90;;;6.20;;
61915;SDS011;47868;51.326;6.550;2023-09-18T00:48:48;13.48;;;6.45;;
61915;SDS011;47868;51.326;6.550;2023-09-18T00:51:14;12.88;;;6.75;;
61915;SDS011;47868;51.326;6.550;2023-09-18T00:53:42;11.55;;;7.03;;
61915;SDS011;47868;51.326;6.550;2023-09-18T00:56:09;11.70;;;7.30;;
61915;SDS011;47868;51.326;6.550;2023-09-18T00:58:35;13.95;;;6.63;;
61915;SDS011;47868;51.326;6.550;2023-09-18T01:01:02;8.88;;;6.68;;
61915;SDS011;47868;51.326;6.550;2023-09-18T01:03:29;9.45;;;7.15;;
61915;SDS011;47868;51.326;6.550;2023-09-18T01:05:55;9.02;;;7.32;;
61915;SDS011;47868;51.326;6.550;2023-09-18T01:08:21;12.68;;;7.32;;
61915;SDS011;47868;51.326;6.550;2023-09-18T01:11:00;8.38;;;7.00;;
61915;SDS011;47868;51.326;6.550;2023-09-18T01:13:33;12.50;;;6.80;;
61915;SDS011;47868;51.326;6.550;2023-09-18T01:16:02;11.32;;;6.57;;
61915;SDS011;47868;51.326;6.550;2023-09-18T01:18:30;14.43;;;6.55;;
61915;SDS011;47868;51.326;6.550;2023-09-18T01:20:56;13.57;;;7.35;;
61915;SDS011;47868;51.326;6.550;2023-09-18T01:23:22;11.20;;;7.18;;
61915;SDS011;47868;51.326;6.550;2023-09-18T01:25:48;12.18;;;7.47;;
61915;SDS011;47868;51.326;6.550;2023-09-18T01:28:14;11.05;;;6.90;;
61915;SDS011;47868;51.326;6.550;2023-09-18T01:30:41;11.18;;;7.28;;
61915;SDS011;47868;51.326;6.550;2023-09-18T01:33:07;8.25;;;7.38;;
61915;SDS011;47868;51.326;6.550;2023-09-18T01:35:34;11.23;;;6.85;;
61915;SDS011;47868;51.326;6.550;2023-09-18T01:38:01;12.60;;;7.00;;
61915;SDS011;47868;51.326;6.550;2023-09-18T01:40:28;9.57;;;6.57;;
61915;SDS011;47868;51.326;6.550;2023-09-18T01:42:54;16.40;;;7.53;;
61915;SDS011;47868;51.326;6.550;2023-09-18T01:45:20;9.80;;;6.97;;
61915;SDS011;47868;51.326;6.550;2023-09-18T01:47:46;14.13;;;7.20;;
61915;SDS011;47868;51.326;6.550;2023-09-18T01:50:12;13.93;;;6.57;;
61915;SDS011;47868;51.326;6.550;2023-09-18T01:52:38;13.80;;;6.82;;
61915;SDS011;47868;51.326;6.550;2023-09-18T01:55:04;17.30;;;6.55;;
61915;SDS011;47868;51.326;6.550;2023-09-18T01:57:31;8.05;;;5.75;;
61915;SDS011;47868;51.326;6.550;2023-09-18T01:59:57;9.55;;;5.90;;
61915;SDS011;47868;51.326;6.550;2023-09-18T02:02:23;8.93;;;6.45;;
61915;SDS011;47868;51.326;6.550;2023-09-18T02:04:49;11.25;;;6.25;;
61915;SDS011;47868;51.326;6.550;2023-09-18T02:07:15;8.68;;;6.78;;
61915;SDS011;47868;51.326;6.550;2023-09-18T02:09:41;10.70;;;5.95;;
61915;SDS011;47868;51.326;6.550;2023-09-18T02:12:07;11.13;;;5.70;;
61915;SDS011;47868;51.326;6.550;2023-09-18T02:14:33;8.93;;;6.38;;
61915;SDS011;47868;51.326;6.550;2023-09-18T02:16:59;11.30;;;6.05;;
61915;SDS011;47868;51.326;6.550;2023-09-18T02:19:25;8.95;;;5.53;;
61915;SDS011;47868;51.326;6.550;2023-09-18T02:21:51;10.15;;;5.65;;
61915;SDS011;47868;51.326;6.550;2023-09-18T02:24:17;12.20;;;5.75;;
61915;SDS011;47868;51.326;6.550;2023-09-18T02:26:44;10.07;;;5.65;;
61915;SDS011;47868;51.326;6.550;2023-09-18T02:29:10;8.98;;;5.45;;
61915;SDS011;47868;51.326;6.550;2023-09-18T02:31:38;12.38;;;5.97;;
61915;SDS011;47868;51.326;6.550;2023-09-18T02:34:04;6.90;;;5.47;;
61915;SDS011;47868;51.326;6.550;2023-09-18T02:36:32;11.63;;;5.57;;
61915;SDS011;47868;51.326;6.550;2023-09-18T02:38:58;7.32;;;5.30;;
61915;SDS011;47868;51.326;6.550;2023-09-18T02:41:24;9.63;;;6.10;;
61915;SDS011;47868;51.326;6.550;2023-09-18T02:43:50;8.75;;;6.10;;
61915;SDS011;47868;51.326;6.550;2023-09-18T02:46:16;9.68;;;5.95;;
61915;SDS011;47868;51.326;6.550;2023-09-18T02:48:42;8.90;;;6.05;;
61915;SDS011;47868;51.326;6.550;2023-09-18T02:51:08;14.20;;;5.40;;
61915;SDS011;47868;51.326;6.550;2023-09-18T02:53:35;6.88;;;5.60;;
61915;SDS011;47868;51.326;6.550;2023-09-18T02:56:01;13.93;;;5.93;;
61915;SDS011;47868;51.326;6.550;2023-09-18T02:58:27;8.88;;;5.95;;
61915;SDS011;47868;51.326;6.550;2023-09-18T03:00:55;12.00;;;6.00;;
61915;SDS011;47868;51.326;6.550;2023-09-18T03:03:23;7.75;;;5.85;;
61915;SDS011;47868;51.326;6.550;2023-09-18T03:05:50;14.02;;;5.78;;
61915;SDS011;47868;51.326;6.550;2023-09-18T03:08:16;8.45;;;5.43;;
61915;SDS011;47868;51.326;6.550;2023-09-18T03:10:42;8.98;;;5.97;;
61915;SDS011;47868;51.326;6.550;2023-09-18T03:13:09;11.63;;;5.78;;
61915;SDS011;47868;51.326;6.550;2023-09-18T03:15:35;9.73;;;6.00;;
61915;SDS011;47868;51.326;6.550;2023-09-18T03:18:02;9.57;;;6.00;;
61915;SDS011;47868;51.326;6.550;2023-09-18T03:20:29;18.77;;;6.22;;
61915;SDS011;47868;51.326;6.550;2023-09-18T03:22:56;10.32;;;5.45;;
61915;SDS011;47868;51.326;6.550;2023-09-18T03:25:22;9.15;;;5.80;;
61915;SDS011;47868;51.326;6.550;2023-09-18T03:27:49;9.45;;;5.53;;
61915;SDS011;47868;51.326;6.550;2023-09-18T03:30:15;13.20;;;5.72;;
61915;SDS011;47868;51.326;6.550;2023-09-18T03:32:41;11.52;;;5.50;;
61915;SDS011;47868;51.326;6.550;2023-09-18T03:35:08;8.02;;;5.07;;
61915;SDS011;47868;51.326;6.550;2023-09-18T03:37:40;13.63;;;5.57;;
61915;SDS011;47868;51.326;6.550;2023-09-18T03:40:07;11.68;;;6.50;;
61915;SDS011;47868;51.326;6.550;2023-09-18T03:42:33;16.83;;;6.38;;
61915;SDS011;47868;51.326;6.550;2023-09-18T03:45:00;13.93;;;6.03;;
61915;SDS011;47868;51.326;6.550;2023-09-18T03:47:26;9.98;;;6.18;;
61915;SDS011;47868;51.326;6.550;2023-09-18T03:49:52;9.77;;;5.85;;
61915;SDS011;47868;51.326;6.550;2023-09-18T03:52:18;11.27;;;6.38;;
61915;SDS011;47868;51.326;6.550;2023-09-18T03:54:44;15.40;;;6.57;;
61915;SDS011;47868;51.326;6.550;2023-09-18T03:57:10;11.90;;;6.82;;
61915;SDS011;47868;51.326;6.550;2023-09-18T03:59:36;7.85;;;5.90;;
61915;SDS011;47868;51.326;6.550;2023-09-18T04:02:02;12.43;;;6.72;;
61915;SDS011;47868;51.326;6.550;2023-09-18T04:04:28;12.95;;;6.53;;
61915;SDS011;47868;51.326;6.550;2023-09-18T04:06:54;12.63;;;6.20;;
61915;SDS011;47868;51.326;6.550;2023-09-18T04:09:21;14.80;;;5.68;;
61915;SDS011;47868;51.326;6.550;2023-09-18T04:11:47;13.07;;;5.97;;
61915;SDS011;47868;51.326;6.550;2023-09-18T04:14:13;11.32;;;6.05;;
61915;SDS011;47868;51.326;6.550;2023-09-18T04:16:39;8.57;;;5.85;;
61915;SDS011;47868;51.326;6.550;2023-09-18T04:19:06;14.48;;;6.60;;
61915;SDS011;47868;51.326;6.550;2023-09-18T04:21:34;14.15;;;6.55;;
61915;SDS011;47868;51.326;6.550;2023-09-18T04:24:00;13.63;;;6.80;;
61915;SDS011;47868;51.326;6.550;2023-09-18T04:26:27;14.40;;;6.18;;
61915;SDS011;47868;51.326;6.550;2023-09-18T04:28:58;9.75;;;6.65;;
61915;SDS011;47868;51.326;6.550;2023-09-18T04:31:24;13.20;;;6.22;;
61915;SDS011;47868;51.326;6.550;2023-09-18T04:33:53;11.40;;;6.05;;
61915;SDS011;47868;51.326;6.550;2023-09-18T04:36:19;16.10;;;6.72;;
61915;SDS011;47868;51.326;6.550;2023-09-18T04:38:45;15.15;;;6.45;;
61915;SDS011;47868;51.326;6.550;2023-09-18T04:41:11;12.10;;;7.13;;
61915;SDS011;47868;51.326;6.550;2023-09-18T04:43:37;10.10;;;6.45;;
61915;SDS011;47868;51.326;6.550;2023-09-18T04:46:04;11.98;;;6.22;;
61915;SDS011;47868;51.326;6.550;2023-09-18T04:48:30;12.50;;;5.75;;
61915;SDS011;47868;51.326;6.550;2023-09-18T04:50:56;11.20;;;5.82;;
61915;SDS011;47868;51.326;6.550;2023-09-18T04:53:23;8.60;;;5.20;;
61915;SDS011;47868;51.326;6.550;2023-09-18T04:55:49;9.88;;;5.53;;
61915;SDS011;47868;51.326;6.550;2023-09-18T04:58:15;7.68;;;5.30;;
61915;SDS011;47868;51.326;6.550;2023-09-18T05:00:42;6.80;;;5.57;;
61915;SDS011;47868;51.326;6.550;2023-09-18T05:03:08;12.68;;;5.15;;
61915;SDS011;47868;51.326;6.550;2023-09-18T05:05:35;13.63;;;5.50;;
61915;SDS011;47868;51.326;6.550;2023-09-18T05:08:01;8.43;;;4.90;;
61915;SDS011;47868;51.326;6.550;2023-09-18T05:10:32;11.10;;;5.03;;
61915;SDS011;47868;51.326;6.550;2023-09-18T05:12:58;9.52;;;4.55;;
61915;SDS011;47868;51.326;6.550;2023-09-18T05:15:24;7.53;;;4.72;;
61915;SDS011;47868;51.326;6.550;2023-09-18T05:17:57;10.85;;;4.22;;
61915;SDS011;47868;51.326;6.550;2023-09-18T05:20:24;10.88;;;4.38;;
61915;SDS011;47868;51.326;6.550;2023-09-18T05:22:51;9.15;;;4.25;;
61915;SDS011;47868;51.326;6.550;2023-09-18T05:25:21;13.75;;;4.63;;
61915;SDS011;47868;51.326;6.550;2023-09-18T05:27:48;9.20;;;4.13;;
61915;SDS011;47868;51.326;6.550;2023-09-18T05:30:21;7.82;;;4.32;;
61915;SDS011;47868;51.326;6.550;2023-09-18T05:32:47;5.93;;;3.97;;
61915;SDS011;47868;51.326;6.550;2023-09-18T05:35:14;5.40;;;3.42;;
61915;SDS011;47868;51.326;6.550;2023-09-18T05:37:40;9.93;;;3.95;;
61915;SDS011;47868;51.326;6.550;2023-09-18T05:40:07;9.35;;;3.83;;
61915;SDS011;47868;51.326;6.550;2023-09-18T05:42:34;8.52;;;3.80;;
61915;SDS011;47868;51.326;6.550;2023-09-18T05:45:00;10.98;;;3.78;;
61915;SDS011;47868;51.326;6.550;2023-09-18T05:47:26;8.48;;;3.80;;
61915;SDS011;47868;51.326;6.550;2023-09-18T05:49:55;8.75;;;3.85;;
61915;SDS011;47868;51.326;6.550;2023-09-18T05:52:21;7.78;;;3.95;;
61915;SDS011;47868;51.326;6.550;2023-09-18T05:54:48;9.55;;;3.85;;
61915;SDS011;47868;51.326;6.550;2023-09-18T05:57:14;11.10;;;4.25;;
61915;SDS011;47868;51.326;6.550;2023-09-18T05:59:41;9.10;;;4.32;;
61915;SDS011;47868;51.326;6.550;2023-09-18T06:02:10;8.80;;;4.18;;
61915;SDS011;47868;51.326;6.550;2023-09-18T06:04:36;13.80;;;4.18;;
61915;SDS011;47868;51.326;6.550;2023-09-18T06:07:05;7.55;;;3.63;;
61915;SDS011;47868;51.326;6.550;2023-09-18T06:09:31;11.43;;;4.55;;
61915;SDS011;47868;51.326;6.550;2023-09-18T06:11:57;11.05;;;3.88;;
61915;SDS011;47868;51.326;6.550;2023-09-18T06:14:24;5.43;;;3.97;;
61915;SDS011;47868;51.326;6.550;2023-09-18T06:16:51;10.18;;;3.95;;
61915;SDS011;47868;51.326;6.550;2023-09-18T06:19:17;5.20;;;3.70;;
61915;SDS011;47868;51.326;6.550;2023-09-18T06:21:44;10.43;;;4.32;;
61915;SDS011;47868;51.326;6.550;2023-09-18T06:24:10;7.93;;;4.72;;
61915;SDS011;47868;51.326;6.550;2023-09-18T06:26:37;11.52;;;4.45;;
61915;SDS011;47868;51.326;6.550;2023-09-18T06:29:03;10.40;;;4.10;;
61915;SDS011;47868;51.326;6.550;2023-09-18T06:31:30;16.88;;;4.82;;
61915;SDS011;47868;51.326;6.550;2023-09-18T06:33:56;8.57;;;4.15;;
61915;SDS011;47868;51.326;6.550;2023-09-18T06:36:22;9.20;;;4.50;;
61915;SDS011;47868;51.326;6.550;2023-09-18T06:38:48;12.95;;;4.07;;
61915;SDS011;47868;51.326;6.550;2023-09-18T06:41:14;7.55;;;3.90;;
61915;SDS011;47868;51.326;6.550;2023-09-18T06:43:40;11.40;;;3.90;;
61915;SDS011;47868;51.326;6.550;2023-09-18T06:46:07;7.03;;;3.47;;
61915;SDS011;47868;51.326;6.550;2023-09-18T06:48:33;6.30;;;3.72;;
61915;SDS011;47868;51.326;6.550;2023-09-18T06:50:59;5.93;;;3.15;;
61915;SDS011;47868;51.326;6.550;2023-09-18T06:53:26;7.47;;;3.65;;
61915;SDS011;47868;51.326;6.550;2023-09-18T06:55:52;6.63;;;3.08;;
61915;SDS011;47868;51.326;6.550;2023-09-18T06:58:19;5.95;;;2.80;;
61915;SDS011;47868;51.326;6.550;2023-09-18T07:00:45;6.65;;;3.33;;
61915;SDS011;47868;51.326;6.550;2023-09-18T07:03:11;6.55;;;2.95;;
61915;SDS011;47868;51.326;6.550;2023-09-18T07:05:37;5.50;;;2.60;;
61915;SDS011;47868;51.326;6.550;2023-09-18T07:08:03;11.63;;;3.20;;
61915;SDS011;47868;51.326;6.550;2023-09-18T07:10:30;7.28;;;2.83;;
61915;SDS011;47868;51.326;6.550;2023-09-18T07:12:58;7.28;;;2.78;;
61915;SDS011;47868;51.326;6.550;2023-09-18T07:15:24;6.18;;;2.70;;
61915;SDS011;47868;51.326;6.550;2023-09-18T07:17:50;10.52;;;3.17;;
61915;SDS011;47868;51.326;6.550;2023-09-18T07:20:16;5.57;;;2.55;;
61915;SDS011;47868;51.326;6.550;2023-09-18T07:22:45;5.38;;;2.28;;
61915;SDS011;47868;51.326;6.550;2023-09-18T07:25:12;2.75;;;2.00;;
61915;SDS011;47868;51.326;6.550;2023-09-18T07:27:38;2.72;;;1.83;;
61915;SDS011;47868;51.326;6.550;2023-09-18T07:30:09;4.65;;;2.05;;
61915;SDS011;47868;51.326;6.550;2023-09-18T07:32:35;7.75;;;2.65;;
61915;SDS011;47868;51.326;6.550;2023-09-18T07:35:01;6.25;;;2.20;;
61915;SDS011;47868;51.326;6.550;2023-09-18T07:37:29;4.10;;;2.20;;
61915;SDS011;47868;51.326;6.550;2023-09-18T07:39:56;5.55;;;2.15;;
61915;SDS011;47868;51.326;6.550;2023-09-18T07:42:25;5.88;;;1.98;;
61915;SDS011;47868;51.326;6.550;2023-09-18T07:44:52;6.72;;;2.20;;
61915;SDS011;47868;51.326;6.550;2023-09-18T07:47:18;5.93;;;2.17;;
61915;SDS011;47868;51.326;6.550;2023-09-18T07:49:44;4.57;;;2.10;;
61915;SDS011;47868;51.326;6.550;2023-09-18T07:52:11;3.97;;;1.92;;
61915;SDS011;47868;51.326;6.550;2023-09-18T07:54:37;3.55;;;2.00;;
61915;SDS011;47868;51.326;6.550;2023-09-18T07:57:03;4.60;;;2.20;;
61915;SDS011;47868;51.326;6.550;2023-09-18T07:59:29;6.85;;;2.00;;
61915;SDS011;47868;51.326;6.550;2023-09-18T08:01:55;4.75;;;1.85;;
61915;SDS011;47868;51.326;6.550;2023-09-18T08:04:22;4.50;;;2.03;;
61915;SDS011;47868;51.326;6.550;2023-09-18T08:06:48;3.65;;;1.92;;
61915;SDS011;47868;51.326;6.550;2023-09-18T08:09:14;7.43;;;2.28;;
61915;SDS011;47868;51.326;6.550;2023-09-18T08:11:41;5.13;;;1.90;;
61915;SDS011;47868;51.326;6.550;2023-09-18T08:14:08;7.28;;;2.03;;
61915;SDS011;47868;51.326;6.550;2023-09-18T08:16:34;3.08;;;2.00;;
61915;SDS011;47868;51.326;6.550;2023-09-18T08:19:01;6.32;;;1.90;;
61915;SDS011;47868;51.326;6.550;2023-09-18T08:21:27;3.00;;;1.80;;
61915;SDS011;47868;51.326;6.550;2023-09-18T08:23:56;2.80;;;1.80;;
61915;SDS011;47868;51.326;6.550;2023-09-18T08:26:22;5.50;;;2.20;;
61915;SDS011;47868;51.326;6.550;2023-09-18T08:28:50;3.75;;;1.77;;
61915;SDS011;47868;51.326;6.550;2023-09-18T08:31:16;4.65;;;1.50;;
61915;SDS011;47868;51.326;6.550;2023-09-18T08:33:42;3.95;;;1.55;;
61915;SDS011;47868;51.326;6.550;2023-09-18T08:36:08;4.03;;;1.58;;
61915;SDS011;47868;51.326;6.550;2023-09-18T08:38:35;9.90;;;1.92;;
61915;SDS011;47868;51.326;6.550;2023-09-18T08:41:01;3.63;;;1.63;;
61915;SDS011;47868;51.326;6.550;2023-09-18T08:43:28;3.17;;;1.85;;
61915;SDS011;47868;51.326;6.550;2023-09-18T08:45:55;7.50;;;2.38;;
61915;SDS011;47868;51.326;6.550;2023-09-18T08:48:27;4.25;;;1.70;;
61915;SDS011;47868;51.326;6.550;2023-09-18T08:50:59;3.83;;;1.40;;
61915;SDS011;47868;51.326;6.550;2023-09-18T08:53:26;3.60;;;1.58;;
61915;SDS011;47868;51.326;6.550;2023-09-18T08:55:52;4.00;;;1.80;;
61915;SDS011;47868;51.326;6.550;2023-09-18T08:58:23;2.92;;;1.83;;
61915;SDS011;47868;51.326;6.550;2023-09-18T09:00:49;2.88;;;1.65;;
61915;SDS011;47868;51.326;6.550;2023-09-18T09:03:15;4.22;;;1.80;;
61915;SDS011;47868;51.326;6.550;2023-09-18T09:05:42;2.75;;;1.80;;
61915;SDS011;47868;51.326;6.550;2023-09-18T09:08:08;6.03;;;1.58;;
61915;SDS011;47868;51.326;6.550;2023-09-18T09:10:34;6.03;;;1.58;;
61915;SDS011;47868;51.326;6.550;2023-09-18T09:13:00;2.58;;;1.63;;
61915;SDS011;47868;51.326;6.550;2023-09-18T09:15:46;3.22;;;1.73;;
61915;SDS011;47868;51.326;6.550;2023-09-18T09:18:14;6.20;;;1.80;;
61915;SDS011;47868;51.326;6.550;2023-09-18T09:20:41;2.50;;;1.80;;
61915;SDS011;47868;51.326;6.550;2023-09-18T09:23:08;6.15;;;1.60;;
61915;SDS011;47868;51.326;6.550;2023-09-18T09:25:34;2.33;;;1.65;;
61915;SDS011;47868;51.326;6.550;2023-09-18T09:28:04;2.78;;;1.88;;
61915;SDS011;47868;51.326;6.550;2023-09-18T09:30:31;4.47;;;1.95;;
61915;SDS011;47868;51.326;6.550;2023-09-18T09:32:58;3.03;;;1.70;;
61915;SDS011;47868;51.326;6.550;2023-09-18T09:35:25;5.90;;;2.00;;
61915;SDS011;47868;51.326;6.550;2023-09-18T09:37:58;2.40;;;1.90;;
61915;SDS011;47868;51.326;6.550;2023-09-18T09:40:25;3.67;;;1.88;;
61915;SDS011;47868;51.326;6.550;2023-09-18T09:42:55;5.93;;;1.73;;
61915;SDS011;47868;51.326;6.550;2023-09-18T09:45:31;5.10;;;1.77;;
61915;SDS011;47868;51.326;6.550;2023-09-18T09:48:01;3.17;;;1.65;;
61915;SDS011;47868;51.326;6.550;2023-09-18T09:50:27;3.78;;;2.08;;
61915;SDS011;47868;51.326;6.550;2023-09-18T09:52:54;5.10;;;2.15;;
61915;SDS011;47868;51.326;6.550;2023-09-18T09:55:24;5.95;;;1.80;;
61915;SDS011;47868;51.326;6.550;2023-09-18T09:57:51;4.90;;;2.20;;
61915;SDS011;47868;51.326;6.550;2023-09-18T10:00:18;3.58;;;1.77;;
61915;SDS011;47868;51.326;6.550;2023-09-18T10:02:52;3.97;;;1.92;;
61915;SDS011;47868;51.326;6.550;2023-09-18T10:05:19;4.70;;;2.10;;
61915;SDS011;47868;51.326;6.550;2023-09-18T10:07:45;9.00;;;1.92;;
61915;SDS011;47868;51.326;6.550;2023-09-18T10:10:11;6.05;;;1.77;;
61915;SDS011;47868;51.326;6.550;2023-09-18T10:12:37;4.40;;;1.85;;
61915;SDS011;47868;51.326;6.550;2023-09-18T10:15:04;7.88;;;2.20;;
61915;SDS011;47868;51.326;6.550;2023-09-18T10:17:34;4.78;;;1.90;;
61915;SDS011;47868;51.326;6.550;2023-09-18T10:20:07;2.90;;;1.67;;
61915;SDS011;47868;51.326;6.550;2023-09-18T10:25:06;4.43;;;1.83;;
61915;SDS011;47868;51.326;6.550;2023-09-18T10:27:35;2.53;;;1.70;;
61915;SDS011;47868;51.326;6.550;2023-09-18T10:30:03;2.35;;;1.80;;
61915;SDS011;47868;51.326;6.550;2023-09-18T10:32:30;4.13;;;1.80;;
61915;SDS011;47868;51.326;6.550;2023-09-18T10:34:57;3.30;;;1.92;;
61915;SDS011;47868;51.326;6.550;2023-09-18T10:37:25;2.08;;;1.73;;
61915;SDS011;47868;51.326;6.550;2023-09-18T10:39:51;1.75;;;1.63;;
61915;SDS011;47868;51.326;6.550;2023-09-18T10:42:19;3.95;;;1.73;;
61915;SDS011;47868;51.326;6.550;2023-09-18T10:44:46;3.88;;;2.00;;
61915;SDS011;47868;51.326;6.550;2023-09-18T10:47:12;3.17;;;2.17;;
61915;SDS011;47868;51.326;6.550;2023-09-18T10:49:39;4.80;;;1.90;;
61915;SDS011;47868;51.326;6.550;2023-09-18T10:52:07;5.10;;;2.08;;
61915;SDS011;47868;51.326;6.550;2023-09-18T10:54:36;2.40;;;2.03;;
61915;SDS011;47868;51.326;6.550;2023-09-18T10:57:04;4.15;;;1.90;;
61915;SDS011;47868;51.326;6.550;2023-09-18T10:59:30;2.75;;;1.70;;
61915;SDS011;47868;51.326;6.550;2023-09-18T11:01:56;8.65;;;2.20;;
61915;SDS011;47868;51.326;6.550;2023-09-18T11:04:29;3.70;;;1.63;;
61915;SDS011;47868;51.326;6.550;2023-09-18T11:07:03;3.97;;;2.13;;
61915;SDS011;47868;51.326;6.550;2023-09-18T11:09:31;3.00;;;2.15;;
61915;SDS011;47868;51.326;6.550;2023-09-18T11:14:44;6.35;;;2.10;;
61915;SDS011;47868;51.326;6.550;2023-09-18T11:22:30;3.08;;;1.77;;
61915;SDS011;47868;51.326;6.550;2023-09-18T11:25:42;6.40;;;2.10;;
61915;SDS011;47868;51.326;6.550;2023-09-18T11:27:54;3.33;;;1.90;;
61915;SDS011;47868;51.326;6.550;2023-09-18T11:30:21;2.95;;;2.10;;
61915;SDS011;47868;51.326;6.550;2023-09-18T11:32:48;4.47;;;2.40;;
61915;SDS011;47868;51.326;6.550;2023-09-18T11:35:14;4.40;;;2.00;;
61915;SDS011;47868;51.326;6.550;2023-09-18T11:37:43;4.40;;;1.95;;
61915;SDS011;47868;51.326;6.550;2023-09-18T11:40:28;3.58;;;1.70;;
61915;SDS011;47868;51.326;6.550;2023-09-18T11:45:44;4.45;;;1.73;;
61915;SDS011;47868;51.326;6.550;2023-09-18T11:48:12;2.47;;;1.70;;
61915;SDS011;47868;51.326;6.550;2023-09-18T11:50:40;5.57;;;2.03;;
61915;SDS011;47868;51.326;6.550;2023-09-18T11:53:07;2.70;;;1.83;;
61915;SDS011;47868;51.326;6.550;2023-09-18T11:55:33;3.35;;;1.60;;
61915;SDS011;47868;51.326;6.550;2023-09-18T11:58:00;3.60;;;1.70;;
61915;SDS011;47868;51.326;6.550;2023-09-18T12:00:29;3.50;;;1.98;;
61915;SDS011;47868;51.326;6.550;2023-09-18T12:02:56;4.40;;;1.98;;
61915;SDS011;47868;51.326;6.550;2023-09-18T12:05:23;1.77;;;1.50;;
61915;SDS011;47868;51.326;6.550;2023-09-18T12:07:52;5.90;;;1.88;;
61915;SDS011;47868;51.326;6.550;2023-09-18T12:10:19;3.25;;;1.70;;
61915;SDS011;47868;51.326;6.550;2023-09-18T12:12:46;2.47;;;1.55;;
61915;SDS011;47868;51.326;6.550;2023-09-18T12:15:13;5.70;;;1.90;;
61915;SDS011;47868;51.326;6.550;2023-09-18T12:17:42;5.25;;;1.90;;
61915;SDS011;47868;51.326;6.550;2023-09-18T12:20:17;3.55;;;1.45;;
61915;SDS011;47868;51.326;6.550;2023-09-18T12:22:46;3.55;;;1.65;;
61915;SDS011;47868;51.326;6.550;2023-09-18T12:25:12;2.15;;;1.40;;
61915;SDS011;47868;51.326;6.550;2023-09-18T12:27:39;6.00;;;2.10;;
61915;SDS011;47868;51.326;6.550;2023-09-18T12:30:06;2.17;;;1.40;;
61915;SDS011;47868;51.326;6.550;2023-09-18T12:32:32;3.90;;;1.90;;
61915;SDS011;47868;51.326;6.550;2023-09-18T12:34:58;2.80;;;1.80;;
61915;SDS011;47868;51.326;6.550;2023-09-18T12:37:24;4.90;;;1.40;;
61915;SDS011;47868;51.326;6.550;2023-09-18T12:39:50;3.08;;;1.73;;
61915;SDS011;47868;51.326;6.550;2023-09-18T12:42:18;4.85;;;1.80;;
61915;SDS011;47868;51.326;6.550;2023-09-18T12:44:45;3.25;;;1.40;;
61915;SDS011;47868;51.326;6.550;2023-09-18T12:47:12;4.75;;;1.50;;
61915;SDS011;47868;51.326;6.550;2023-09-18T12:49:38;3.92;;;1.63;;
61915;SDS011;47868;51.326;6.550;2023-09-18T12:52:05;4.45;;;1.60;;
61915;SDS011;47868;51.326;6.550;2023-09-18T12:54:39;3.08;;;1.50;;
61915;SDS011;47868;51.326;6.550;2023-09-18T12:57:05;3.33;;;1.40;;
61915;SDS011;47868;51.326;6.550;2023-09-18T12:59:32;3.10;;;1.58;;
61915;SDS011;47868;51.326;6.550;2023-09-18T13:02:00;3.92;;;1.60;;
61915;SDS011;47868;51.326;6.550;2023-09-18T13:04:29;4.25;;;1.63;;
61915;SDS011;47868;51.326;6.550;2023-09-18T13:07:03;5.53;;;1.50;;
61915;SDS011;47868;51.326;6.550;2023-09-18T13:09:29;3.90;;;1.55;;
61915;SDS011;47868;51.326;6.550;2023-09-18T13:11:55;2.33;;;1.60;;
61915;SDS011;47868;51.326;6.550;2023-09-18T13:14:21;2.95;;;1.60;;
61915;SDS011;47868;51.326;6.550;2023-09-18T13:16:48;4.97;;;1.33;;
61915;SDS011;47868;51.326;6.550;2023-09-18T13:19:14;3.60;;;1.48;;
61915;SDS011;47868;51.326;6.550;2023-09-18T13:21:46;2.97;;;1.50;;
61915;SDS011;47868;51.326;6.550;2023-09-18T13:24:28;1.80;;;1.30;;
61915;SDS011;47868;51.326;6.550;2023-09-18T13:26:54;5.82;;;1.63;;
61915;SDS011;47868;51.326;6.550;2023-09-18T13:29:21;3.72;;;1.63;;
61915;SDS011;47868;51.326;6.550;2023-09-18T13:31:47;2.55;;;1.40;;
61915;SDS011;47868;51.326;6.550;2023-09-18T13:34:14;3.85;;;1.15;;
61915;SDS011;47868;51.326;6.550;2023-09-18T13:36:43;5.50;;;1.30;;
61915;SDS011;47868;51.326;6.550;2023-09-18T13:39:09;2.33;;;1.38;;
61915;SDS011;47868;51.326;6.550;2023-09-18T13:41:35;3.65;;;1.60;;
61915;SDS011;47868;51.326;6.550;2023-09-18T13:44:01;3.88;;;1.50;;
61915;SDS011;47868;51.326;6.550;2023-09-18T13:46:27;5.85;;;1.85;;
61915;SDS011;47868;51.326;6.550;2023-09-18T13:48:53;3.65;;;1.75;;
61915;SDS011;47868;51.326;6.550;2023-09-18T13:51:19;5.35;;;1.60;;
61915;SDS011;47868;51.326;6.550;2023-09-18T13:53:45;3.33;;;1.20;;
61915;SDS011;47868;51.326;6.550;2023-09-18T13:56:13;3.92;;;1.73;;
61915;SDS011;47868;51.326;6.550;2023-09-18T13:58:39;1.42;;;1.33;;
61915;SDS011;47868;51.326;6.550;2023-09-18T14:01:06;2.90;;;1.20;;
61915;SDS011;47868;51.326;6.550;2023-09-18T14:03:33;2.88;;;1.67;;
61915;SDS011;47868;51.326;6.550;2023-09-18T14:05:59;3.00;;;1.63;;
61915;SDS011;47868;51.326;6.550;2023-09-18T14:08:25;2.88;;;1.42;;
61915;SDS011;47868;51.326;6.550;2023-09-18T14:10:51;2.65;;;1.23;;
61915;SDS011;47868;51.326;6.550;2023-09-18T14:13:17;2.53;;;1.73;;
61915;SDS011;47868;51.326;6.550;2023-09-18T14:15:43;5.78;;;1.27;;
61915;SDS011;47868;51.326;6.550;2023-09-18T14:18:09;2.67;;;1.33;;
61915;SDS011;47868;51.326;6.550;2023-09-18T14:20:36;1.85;;;1.50;;
61915;SDS011;47868;51.326;6.550;2023-09-18T14:23:02;3.55;;;1.58;;
61915;SDS011;47868;51.326;6.550;2023-09-18T14:25:28;8.20;;;1.60;;
61915;SDS011;47868;51.326;6.550;2023-09-18T14:27:55;3.45;;;1.48;;
61915;SDS011;47868;51.326;6.550;2023-09-18T14:30:21;5.90;;;1.65;;
61915;SDS011;47868;51.326;6.550;2023-09-18T14:32:54;2.17;;;1.35;;
61915;SDS011;47868;51.326;6.550;2023-09-18T14:35:20;2.97;;;1.50;;
61915;SDS011;47868;51.326;6.550;2023-09-18T14:37:48;2.58;;;1.63;;
61915;SDS011;47868;51.326;6.550;2023-09-18T14:40:14;3.75;;;1.20;;
61915;SDS011;47868;51.326;6.550;2023-09-18T14:42:40;3.22;;;1.60;;
61915;SDS011;47868;51.326;6.550;2023-09-18T14:45:06;2.63;;;1.67;;
61915;SDS011;47868;51.326;6.550;2023-09-18T14:47:32;2.08;;;1.50;;
61915;SDS011;47868;51.326;6.550;2023-09-18T14:49:59;2.45;;;1.48;;
61915;SDS011;47868;51.326;6.550;2023-09-18T14:52:26;1.95;;;1.27;;
61915;SDS011;47868;51.326;6.550;2023-09-18T14:54:52;4.63;;;1.63;;
61915;SDS011;47868;51.326;6.550;2023-09-18T14:57:19;2.80;;;1.38;;
61915;SDS011;47868;51.326;6.550;2023-09-18T14:59:45;3.22;;;1.33;;